Time,TemperatureF,DewpointF,PressureIn,WindDirection,WindDirectionDegrees,WindSpeedMPH,WindSpeedGustMPH,Humidity,HourlyPrecipIn,Conditions,Clouds,dailyrainin,SoftwareType,DateUTC
2013-02-20 06:17:00,46.8,34.4,29.53,ENE,62,6.3,6.3,62,0.00,,---,0.00,VWS V13.01,2013-02-20 12:17:00,
2013-02-20 06:22:00,46.4,34.1,29.53,NE,52,5.4,5.4,62,0.04,,---,0.00,VWS V13.01,2013-02-20 12:22:00,
2013-02-20 06:27:00,46.2,34.7,29.53,NE,52,6.3,8.1,64,0.04,,---,0.00,VWS V13.01,2013-02-20 12:27:00,
2013-02-20 06:32:00,46.0,34.6,29.53,ENE,71,5.8,5.8,64,0.04,,---,0.00,VWS V13.01,2013-02-20 12:32:00,
2013-02-20 06:37:00,45.9,34.4,29.50,ENE,60,8.7,8.7,64,0.04,,---,0.00,VWS V13.01,2013-02-20 12:37:00,
2013-02-20 06:42:00,45.7,33.8,29.50,ENE,64,8.3,8.3,63,0.04,,---,0.00,VWS V13.01,2013-02-20 12:42:00,
2013-02-20 06:47:00,45.7,33.8,29.50,ENE,67,12.8,12.8,63,0.04,,---,0.00,VWS V13.01,2013-02-20 12:47:00,
2013-02-20 06:52:00,45.7,33.4,29.50,NE,50,7.6,8.7,62,0.04,,---,0.00,VWS V13.01,2013-02-20 12:52:00,
2013-02-20 06:57:00,45.5,33.2,29.50,ENE,62,6.3,6.3,62,0.04,,---,0.00,VWS V13.01,2013-02-20 12:57:00,
2013-02-20 07:02:00,45.7,33.0,29.50,NNE,33,5.4,5.8,61,0.04,,---,0.00,VWS V13.01,2013-02-20 13:02:00,
2013-02-20 07:07:00,45.7,33.0,29.50,ENE,62,3.6,3.6,61,0.04,,---,0.00,VWS V13.01,2013-02-20 13:07:00,
2013-02-20 07:12:00,45.7,32.6,29.50,East,84,7.6,7.6,60,0.04,,---,0.00,VWS V13.01,2013-02-20 13:12:00,
2013-02-20 07:17:00,45.5,32.8,29.50,ENE,66,8.1,8.1,61,0.04,,---,0.00,VWS V13.01,2013-02-20 13:17:00,
2013-02-20 07:22:00,45.5,33.2,29.50,ENE,78,12.3,12.3,62,0.00,,---,0.00,VWS V13.01,2013-02-20 13:22:00,
2013-02-20 07:27:00,45.5,33.7,29.50,East,94,8.7,15.0,63,0.00,,---,0.00,VWS V13.01,2013-02-20 13:27:00,
2013-02-20 07:32:00,45.5,33.7,29.50,NE,39,3.1,3.1,63,0.00,,---,0.00,VWS V13.01,2013-02-20 13:32:00,
2013-02-20 07:37:00,45.5,33.7,29.53,NNE,33,2.7,2.7,63,0.00,,---,0.00,VWS V13.01,2013-02-20 13:37:00,
2013-02-20 07:42:00,45.7,33.8,29.53,North,353,8.1,8.1,63,0.00,,---,0.00,VWS V13.01,2013-02-20 13:42:00,
2013-02-20 07:47:00,45.9,34.4,29.53,NW,322,2.7,3.6,64,0.00,,---,0.00,VWS V13.01,2013-02-20 13:47:00,
2013-02-20 07:52:00,45.9,34.4,29.53,ENE,77,7.2,10.1,64,0.00,,---,0.00,VWS V13.01,2013-02-20 13:52:00,
2013-02-20 07:57:00,45.9,34.8,29.53,NNE,31,7.6,7.6,65,0.00,,---,0.00,VWS V13.01,2013-02-20 13:57:00,
2013-02-20 08:02:00,45.7,35.4,29.53,ENE,59,4.0,9.2,67,0.00,,---,0.00,VWS V13.01,2013-02-20 14:02:00,
2013-02-20 08:07:00,45.5,35.6,29.53,NNE,19,4.9,4.9,68,0.00,,---,0.00,VWS V13.01,2013-02-20 14:07:00,
2013-02-20 08:12:00,45.5,35.9,29.56,NE,43,7.6,7.6,69,0.00,,---,0.00,VWS V13.01,2013-02-20 14:12:00,
2013-02-20 08:17:00,45.5,36.3,29.56,North,5,3.1,6.3,70,0.00,,---,0.00,VWS V13.01,2013-02-20 14:17:00,
2013-02-20 08:22:00,45.5,36.3,29.59,North,357,6.7,6.7,70,0.00,,---,0.00,VWS V13.01,2013-02-20 14:22:00,
2013-02-20 08:27:00,45.5,35.9,29.59,NNE,24,7.6,7.6,69,0.00,,---,0.00,VWS V13.01,2013-02-20 14:27:00,
2013-02-20 08:32:00,45.5,35.9,29.59,NNE,30,7.6,7.6,69,0.00,,---,0.00,VWS V13.01,2013-02-20 14:32:00,
2013-02-20 08:37:00,45.3,35.8,29.56,ENE,78,3.6,3.6,69,0.00,,---,0.00,VWS V13.01,2013-02-20 14:37:00,
2013-02-20 08:42:00,45.3,35.8,29.56,NE,43,4.0,4.9,69,0.00,,---,0.00,VWS V13.01,2013-02-20 14:42:00,
2013-02-20 08:47:00,45.1,36.3,29.56,NE,55,4.0,4.0,71,0.00,,---,0.00,VWS V13.01,2013-02-20 14:47:00,
2013-02-20 08:52:00,45.0,36.5,29.56,ENE,59,7.6,7.6,72,0.00,,---,0.00,VWS V13.01,2013-02-20 14:52:00,
2013-02-20 08:57:00,44.8,37.0,29.56,North,5,3.6,3.6,74,0.00,,---,0.00,VWS V13.01,2013-02-20 14:57:00,
2013-02-20 09:02:00,44.6,36.8,29.56,NNE,32,4.9,7.2,74,0.00,,---,0.00,VWS V13.01,2013-02-20 15:02:00,
2013-02-20 09:07:00,44.6,37.2,29.56,NNE,24,4.0,10.5,75,0.00,,---,0.00,VWS V13.01,2013-02-20 15:07:00,
2013-02-20 09:12:00,44.4,37.3,29.56,North,0,5.4,8.7,76,0.00,,---,0.00,VWS V13.01,2013-02-20 15:12:00,
2013-02-20 09:17:00,44.6,37.8,29.56,NE,52,8.3,8.3,77,0.00,,---,0.00,VWS V13.01,2013-02-20 15:17:00,
2013-02-20 09:22:00,44.4,37.7,29.53,NNE,28,7.6,7.6,77,0.00,,---,0.00,VWS V13.01,2013-02-20 15:22:00,
2013-02-20 09:27:00,44.4,37.7,29.53,North,357,5.8,5.8,77,0.00,,---,0.00,VWS V13.01,2013-02-20 15:27:00,
2013-02-20 09:32:00,44.6,37.8,29.53,NE,55,2.7,3.1,77,0.00,,---,0.00,VWS V13.01,2013-02-20 15:32:00,
2013-02-20 09:37:00,44.8,38.0,29.53,NE,36,5.8,5.8,77,0.00,,---,0.00,VWS V13.01,2013-02-20 15:37:00,
2013-02-20 09:42:00,44.8,38.3,29.56,NE,54,5.8,5.8,78,0.00,,---,0.00,VWS V13.01,2013-02-20 15:42:00,
2013-02-20 09:47:00,45.0,39.2,29.56,NE,47,7.2,9.2,80,0.00,,---,0.00,VWS V13.01,2013-02-20 15:47:00,
2013-02-20 09:52:00,45.1,40.0,29.53,ENE,75,8.1,8.1,82,0.00,,---,0.00,VWS V13.01,2013-02-20 15:52:00,
2013-02-20 09:57:00,45.1,40.0,29.53,NE,42,8.1,8.1,82,0.00,,---,0.00,VWS V13.01,2013-02-20 15:57:00,
2013-02-20 10:02:00,45.1,39.7,29.53,ENE,78,8.3,10.5,81,0.00,,---,0.00,VWS V13.01,2013-02-20 16:02:00,
2013-02-20 10:07:00,45.0,39.5,29.50,NE,54,10.1,11.0,81,0.00,,---,0.00,VWS V13.01,2013-02-20 16:07:00,
2013-02-20 10:12:00,45.1,40.0,29.50,NE,56,8.7,15.0,82,0.04,,---,0.04,VWS V13.01,2013-02-20 16:12:00,
2013-02-20 10:17:00,45.5,40.3,29.50,NE,43,8.1,10.1,82,0.04,,---,0.04,VWS V13.01,2013-02-20 16:17:00,
2013-02-20 10:22:00,45.5,40.7,29.50,ENE,60,15.0,15.0,83,0.04,,---,0.04,VWS V13.01,2013-02-20 16:22:00,
2013-02-20 10:27:00,45.5,40.7,29.50,ENE,60,15.0,15.0,83,0.04,,---,0.04,VWS V13.01,2013-02-20 16:27:00,
2013-02-20 10:32:00,45.5,40.7,29.50,NE,54,5.4,5.4,83,0.04,,---,0.04,VWS V13.01,2013-02-20 16:32:00,
2013-02-20 10:37:00,45.5,40.7,29.50,ENE,70,6.3,6.3,83,0.04,,---,0.04,VWS V13.01,2013-02-20 16:37:00,
2013-02-20 10:42:00,45.5,40.7,29.50,NE,53,11.0,11.0,83,0.04,,---,0.04,VWS V13.01,2013-02-20 16:42:00,
2013-02-20 10:47:00,45.5,40.7,29.50,NE,53,11.0,11.0,83,0.04,,---,0.04,VWS V13.01,2013-02-20 16:47:00,
2013-02-20 10:52:00,45.5,40.7,29.50,ENE,75,10.5,10.5,83,0.04,,---,0.04,VWS V13.01,2013-02-20 16:52:00,
2013-02-20 10:57:00,45.5,40.7,29.50,ENE,75,10.5,10.5,83,0.04,,---,0.04,VWS V13.01,2013-02-20 16:57:00,
2013-02-20 11:02:00,45.9,39.4,29.50,ENE,75,10.5,10.5,78,0.04,,---,0.04,VWS V13.01,2013-02-20 17:02:00,
2013-02-20 11:07:00,45.9,39.4,29.50,ENE,60,5.8,5.8,78,0.04,,---,0.04,VWS V13.01,2013-02-20 17:07:00,
2013-02-20 11:12:00,45.9,39.4,29.50,ENE,63,8.3,8.3,78,0.00,,---,0.04,VWS V13.01,2013-02-20 17:12:00,
2013-02-20 11:17:00,45.9,39.4,29.50,NNE,18,8.3,8.3,78,0.00,,---,0.04,VWS V13.01,2013-02-20 17:17:00,
2013-02-20 11:22:00,45.9,39.4,29.50,NNE,18,8.3,8.3,78,0.00,,---,0.04,VWS V13.01,2013-02-20 17:22:00,
2013-02-20 11:27:00,45.9,39.4,29.50,NNE,18,8.3,8.3,78,0.00,,---,0.04,VWS V13.01,2013-02-20 17:27:00,
2013-02-20 11:32:00,45.9,39.4,29.50,ENE,57,4.0,4.0,78,0.00,,---,0.04,VWS V13.01,2013-02-20 17:32:00,
2013-02-20 11:37:00,45.9,39.4,29.50,ENE,57,4.0,4.0,78,0.00,,---,0.04,VWS V13.01,2013-02-20 17:37:00,
2013-02-20 11:41:00,45.9,39.4,29.50,ENE,57,4.0,4.0,78,0.00,,---,0.04,VWS V13.01,2013-02-20 17:41:00,
2013-02-20 11:46:00,45.9,39.4,29.50,ENE,57,4.0,4.0,78,0.00,,---,0.04,VWS V13.01,2013-02-20 17:46:00,
2013-02-20 11:51:00,45.9,39.4,29.50,ENE,57,4.0,4.0,78,0.00,,---,0.04,VWS V13.01,2013-02-20 17:51:00,
2013-02-20 11:57:00,45.9,39.4,29.50,ENE,57,4.0,4.0,78,0.00,,---,0.04,VWS V13.01,2013-02-20 17:57:00,
2013-02-20 12:02:00,45.9,39.4,29.50,ENE,57,4.0,4.0,78,0.00,,---,0.04,VWS V13.01,2013-02-20 18:02:00,
2013-02-20 12:07:00,45.9,39.4,29.50,ENE,57,4.0,4.0,78,0.00,,---,0.04,VWS V13.01,2013-02-20 18:07:00,
2013-02-20 12:12:00,45.9,39.4,29.50,ENE,57,4.0,4.0,78,0.00,,---,0.04,VWS V13.01,2013-02-20 18:12:00,
2013-02-20 12:17:00,45.9,39.4,29.50,ENE,57,4.0,4.0,78,0.00,,---,0.04,VWS V13.01,2013-02-20 18:17:00,
2013-02-20 12:21:00,45.9,39.4,29.50,ENE,57,4.0,4.0,78,0.00,,---,0.04,VWS V13.01,2013-02-20 18:21:00,
2013-02-20 12:26:00,45.9,39.4,29.50,ENE,57,4.0,4.0,78,0.00,,---,0.04,VWS V13.01,2013-02-20 18:26:00,
2013-02-20 12:31:00,45.9,39.4,29.50,ENE,57,4.0,4.0,78,0.00,,---,0.04,VWS V13.01,2013-02-20 18:31:00,
2013-02-20 12:36:00,45.9,39.4,29.50,ENE,57,4.0,4.0,78,0.00,,---,0.04,VWS V13.01,2013-02-20 18:36:00,
2013-02-20 12:41:00,45.9,39.4,29.50,ENE,57,4.0,4.0,78,0.00,,---,0.04,VWS V13.01,2013-02-20 18:41:00,
2013-02-20 12:46:00,45.9,39.4,29.50,ENE,57,4.0,4.0,78,0.00,,---,0.04,VWS V13.01,2013-02-20 18:46:00,
2013-02-20 12:51:00,45.9,39.4,29.50,ENE,57,4.0,4.0,78,0.00,,---,0.04,VWS V13.01,2013-02-20 18:51:00,
2013-02-20 12:56:00,45.9,39.4,29.50,ENE,57,4.0,4.0,78,0.00,,---,0.04,VWS V13.01,2013-02-20 18:56:00,
2013-02-20 13:01:00,45.9,39.4,29.50,East,89,8.7,8.7,78,0.00,,---,0.04,VWS V13.01,2013-02-20 19:01:00,
2013-02-20 13:06:00,45.9,39.4,29.50,ESE,115,8.3,8.3,78,0.00,,---,0.04,VWS V13.01,2013-02-20 19:06:00,
2013-02-20 13:11:00,45.9,39.4,29.50,ENE,63,5.8,5.8,78,0.00,,---,0.04,VWS V13.01,2013-02-20 19:11:00,
2013-02-20 13:16:00,45.9,39.4,29.50,ENE,71,5.4,5.4,78,0.00,,---,0.04,VWS V13.01,2013-02-20 19:16:00,
2013-02-20 13:21:00,45.9,39.4,29.50,ENE,71,5.4,5.4,78,0.00,,---,0.04,VWS V13.01,2013-02-20 19:21:00,
2013-02-20 13:26:00,45.9,39.4,29.44,SE,125,3.6,3.6,78,0.00,,---,0.04,VWS V13.01,2013-02-20 19:26:00,
2013-02-20 13:31:00,45.9,39.4,29.44,East,94,5.4,5.4,78,0.00,,---,0.04,VWS V13.01,2013-02-20 19:31:00,
2013-02-20 13:36:00,45.9,39.4,29.44,NE,53,5.4,5.4,78,0.00,,---,0.04,VWS V13.01,2013-02-20 19:36:00,
2013-02-20 13:41:00,46.0,35.0,29.44,ENE,60,7.6,7.6,65,0.00,,---,0.04,VWS V13.01,2013-02-20 19:41:00,
2013-02-20 13:46:00,46.0,35.0,29.44,East,81,6.3,6.3,65,0.00,,---,0.04,VWS V13.01,2013-02-20 19:46:00,
2013-02-20 13:51:00,46.0,35.0,29.44,East,90,8.3,8.7,65,0.00,,---,0.04,VWS V13.01,2013-02-20 19:51:00,
2013-02-20 13:56:00,46.0,34.2,29.44,ESE,111,5.8,5.8,63,0.00,,---,0.04,VWS V13.01,2013-02-20 19:56:00,
2013-02-20 14:01:00,46.0,34.2,29.44,ENE,75,5.4,5.4,63,0.00,,---,0.04,VWS V13.01,2013-02-20 20:01:00,
2013-02-20 14:06:00,45.9,33.2,29.44,NE,50,11.0,11.0,61,0.00,,---,0.04,VWS V13.01,2013-02-20 20:06:00,
2013-02-20 14:11:00,45.9,33.2,29.44,ENE,57,8.3,8.3,61,0.00,,---,0.04,VWS V13.01,2013-02-20 20:11:00,
2013-02-20 14:16:00,45.9,33.2,29.44,NNE,32,8.3,8.3,61,0.00,,---,0.04,VWS V13.01,2013-02-20 20:16:00,
2013-02-20 14:21:00,45.9,33.2,29.44,NE,38,8.1,8.1,61,0.00,,---,0.04,VWS V13.01,2013-02-20 20:21:00,
2013-02-20 14:26:00,45.5,32.4,29.44,NE,46,5.4,5.4,60,0.00,,---,0.04,VWS V13.01,2013-02-20 20:26:00,
2013-02-20 14:31:00,45.3,32.7,29.44,East,92,8.1,8.1,61,0.00,,---,0.04,VWS V13.01,2013-02-20 20:31:00,
2013-02-20 14:36:00,45.5,32.8,29.44,ENE,74,8.7,8.7,61,0.00,,---,0.04,VWS V13.01,2013-02-20 20:36:00,
2013-02-20 14:41:00,45.5,32.8,29.44,NE,51,8.3,8.3,61,0.00,,---,0.04,VWS V13.01,2013-02-20 20:41:00,
2013-02-20 14:46:00,45.5,32.8,29.44,SSE,163,5.4,5.4,61,0.00,,---,0.04,VWS V13.01,2013-02-20 20:46:00,
2013-02-20 14:51:00,45.5,32.8,29.44,East,89,2.7,2.7,61,0.00,,---,0.04,VWS V13.01,2013-02-20 20:51:00,
2013-02-20 14:56:00,45.5,32.8,29.44,East,92,6.3,6.3,61,0.00,,---,0.04,VWS V13.01,2013-02-20 20:56:00,
2013-02-20 15:01:00,45.5,32.8,29.44,ENE,69,13.2,13.2,61,0.00,,---,0.04,VWS V13.01,2013-02-20 21:01:00,
2013-02-20 15:06:00,45.5,32.8,29.44,East,80,7.6,7.6,61,0.00,,---,0.04,VWS V13.01,2013-02-20 21:06:00,
2013-02-20 15:11:00,45.5,32.8,29.44,NE,50,6.7,6.7,61,0.00,,---,0.04,VWS V13.01,2013-02-20 21:11:00,
2013-02-20 15:16:00,45.5,32.8,29.44,ENE,73,10.1,10.1,61,0.00,,---,0.04,VWS V13.01,2013-02-20 21:16:00,
2013-02-20 15:21:00,45.5,33.2,29.44,ENE,76,8.7,8.7,62,0.00,,---,0.04,VWS V13.01,2013-02-20 21:21:00,
2013-02-20 15:26:00,45.5,33.2,29.44,ENE,66,3.1,3.1,62,0.00,,---,0.04,VWS V13.01,2013-02-20 21:26:00,
2013-02-20 15:31:00,45.5,33.2,29.44,NNE,25,8.1,8.1,62,0.00,,---,0.04,VWS V13.01,2013-02-20 21:31:00,
2013-02-20 15:36:00,45.5,33.2,29.44,ENE,62,13.6,13.6,62,0.00,,---,0.04,VWS V13.01,2013-02-20 21:36:00,
2013-02-20 15:41:00,45.5,33.2,29.44,NNE,16,8.3,8.3,62,0.00,,---,0.04,VWS V13.01,2013-02-20 21:41:00,
2013-02-20 15:46:00,45.3,33.1,29.44,NE,50,8.7,8.7,62,0.00,,---,0.04,VWS V13.01,2013-02-20 21:46:00,
2013-02-20 15:51:00,45.3,33.1,29.44,NE,56,10.1,15.0,62,0.00,,---,0.04,VWS V13.01,2013-02-20 21:51:00,
2013-02-20 15:56:00,45.3,33.1,29.44,NE,36,5.4,5.4,62,0.00,,---,0.04,VWS V13.01,2013-02-20 21:56:00,
2013-02-20 16:01:00,45.3,33.1,29.44,ENE,59,10.1,10.1,62,0.00,,---,0.04,VWS V13.01,2013-02-20 22:01:00,
2013-02-20 16:06:00,45.3,33.1,29.44,ENE,72,6.3,6.3,62,0.00,,---,0.04,VWS V13.01,2013-02-20 22:06:00,
2013-02-20 16:11:00,45.1,31.7,29.44,ENE,65,5.4,5.4,59,0.00,,---,0.04,VWS V13.01,2013-02-20 22:11:00,
2013-02-20 16:16:00,45.1,32.1,29.44,ESE,106,7.2,7.2,60,0.00,,---,0.04,VWS V13.01,2013-02-20 22:16:00,
2013-02-20 16:21:00,45.1,32.1,29.44,ENE,73,8.1,8.1,60,0.00,,---,0.04,VWS V13.01,2013-02-20 22:21:00,
2013-02-20 16:26:00,45.1,32.1,29.44,NE,41,6.3,6.3,60,0.00,,---,0.04,VWS V13.01,2013-02-20 22:26:00,
2013-02-20 16:31:00,45.0,32.3,29.38,ENE,74,10.1,10.1,61,0.00,,---,0.04,VWS V13.01,2013-02-20 22:31:00,
2013-02-20 16:36:00,45.0,32.3,29.38,ENE,72,10.1,10.1,61,0.00,,---,0.04,VWS V13.01,2013-02-20 22:36:00,
2013-02-20 16:41:00,45.0,32.7,29.38,East,90,11.9,11.9,62,0.00,,---,0.04,VWS V13.01,2013-02-20 22:41:00,
2013-02-20 16:46:00,45.0,32.7,29.38,ENE,77,5.8,5.8,62,0.00,,---,0.04,VWS V13.01,2013-02-20 22:46:00,
2013-02-20 16:51:00,45.0,32.7,29.38,NE,53,8.7,8.7,62,0.00,,---,0.04,VWS V13.01,2013-02-20 22:51:00,
2013-02-20 16:56:00,45.0,32.7,29.38,NE,53,5.8,5.8,62,0.00,,---,0.04,VWS V13.01,2013-02-20 22:56:00,
2013-02-20 17:01:00,45.0,32.7,29.35,ENE,57,8.1,8.1,62,0.00,,---,0.04,VWS V13.01,2013-02-20 23:01:00,
2013-02-20 17:06:00,44.8,34.9,29.35,NE,46,5.8,5.8,68,0.00,,---,0.04,VWS V13.01,2013-02-20 23:06:00,
2013-02-20 17:11:00,44.8,34.9,29.35,ENE,63,6.3,6.3,68,0.00,,---,0.04,VWS V13.01,2013-02-20 23:11:00,
2013-02-20 17:16:00,44.8,34.9,29.35,ESE,115,8.3,8.3,68,0.00,,---,0.04,VWS V13.01,2013-02-20 23:16:00,
2013-02-20 17:21:00,44.8,34.9,29.35,ENE,69,12.8,12.8,68,0.00,,---,0.04,VWS V13.01,2013-02-20 23:21:00,
2013-02-20 17:26:00,44.8,34.9,29.32,ESE,105,5.8,5.8,68,0.00,,---,0.04,VWS V13.01,2013-02-20 23:26:00,
2013-02-20 17:31:00,44.4,36.0,29.32,NE,56,9.2,9.2,72,0.00,,---,0.04,VWS V13.01,2013-02-20 23:31:00,
2013-02-20 17:36:00,44.4,36.0,29.32,NE,56,9.2,9.2,72,0.00,,---,0.04,VWS V13.01,2013-02-20 23:36:00,
2013-02-20 17:41:00,44.4,36.0,29.32,NNE,22,7.6,9.2,72,0.00,,---,0.04,VWS V13.01,2013-02-20 23:41:00,
2013-02-20 17:46:00,44.4,36.0,29.32,NNE,22,7.6,7.6,72,0.00,,---,0.04,VWS V13.01,2013-02-20 23:46:00,
2013-02-20 17:51:00,44.4,36.0,29.32,NE,41,10.5,10.5,72,0.00,,---,0.04,VWS V13.01,2013-02-20 23:51:00,
2013-02-20 17:56:00,43.7,35.3,29.32,NE,41,10.5,10.5,72,0.00,,---,0.04,VWS V13.01,2013-02-20 23:56:00,
2013-02-20 18:01:00,43.7,35.3,29.32,East,89,11.0,11.0,72,0.00,,---,0.04,VWS V13.01,2013-02-21 00:01:00,
2013-02-20 18:06:00,43.7,35.3,29.32,East,89,11.0,11.0,72,0.00,,---,0.04,VWS V13.01,2013-02-21 00:06:00,
2013-02-20 18:11:00,43.7,35.3,29.32,NE,42,6.3,6.3,72,0.00,,---,0.04,VWS V13.01,2013-02-21 00:11:00,
2013-02-20 18:16:00,43.7,35.3,29.35,NE,42,6.3,6.3,72,0.00,,---,0.04,VWS V13.01,2013-02-21 00:16:00,
2013-02-20 18:21:00,43.3,35.3,29.35,NE,39,6.7,6.7,73,0.00,,---,0.04,VWS V13.01,2013-02-21 00:21:00,
2013-02-20 18:26:00,43.3,35.3,29.35,NE,39,6.7,6.7,73,0.00,,---,0.04,VWS V13.01,2013-02-21 00:26:00,
2013-02-20 18:31:00,43.3,35.3,29.35,NE,56,4.0,4.0,73,0.00,,---,0.04,VWS V13.01,2013-02-21 00:31:00,
2013-02-20 18:36:00,43.3,35.3,29.35,NE,44,5.8,5.8,73,0.00,,---,0.04,VWS V13.01,2013-02-21 00:36:00,
2013-02-20 18:41:00,43.3,35.3,29.35,ENE,68,8.3,8.3,73,0.00,,---,0.04,VWS V13.01,2013-02-21 00:41:00,
2013-02-20 18:46:00,42.8,34.8,29.35,ENE,68,8.3,8.3,73,0.00,,---,0.04,VWS V13.01,2013-02-21 00:46:00,
2013-02-20 18:51:00,42.8,34.8,29.35,NE,36,7.6,7.6,73,0.00,,---,0.04,VWS V13.01,2013-02-21 00:51:00,
2013-02-20 18:56:00,42.8,34.8,29.35,NE,36,7.6,7.6,73,0.00,,---,0.04,VWS V13.01,2013-02-21 00:56:00,
2013-02-20 19:01:00,42.8,34.8,29.32,NE,36,7.6,7.6,73,0.00,,---,0.04,VWS V13.01,2013-02-21 01:01:00,
2013-02-20 19:06:00,42.8,34.8,29.32,NE,36,7.6,7.6,73,0.00,,---,0.04,VWS V13.01,2013-02-21 01:06:00,
2013-02-20 19:11:00,42.3,34.6,29.32,ENE,73,11.4,11.4,74,0.00,,---,0.04,VWS V13.01,2013-02-21 01:11:00,
2013-02-20 19:16:00,42.3,34.6,29.32,ENE,73,11.4,11.4,74,0.00,,---,0.04,VWS V13.01,2013-02-21 01:16:00,
2013-02-20 19:21:00,42.3,34.6,29.35,ENE,74,5.8,5.8,74,0.00,,---,0.04,VWS V13.01,2013-02-21 01:21:00,
2013-02-20 19:26:00,42.3,34.6,29.35,ENE,74,5.8,5.8,74,0.00,,---,0.04,VWS V13.01,2013-02-21 01:26:00,
2013-02-20 19:31:00,42.3,34.6,29.35,ENE,74,5.8,5.8,74,0.00,,---,0.04,VWS V13.01,2013-02-21 01:31:00,
2013-02-20 19:36:00,42.1,34.4,29.32,ENE,74,5.8,5.8,74,0.00,,---,0.04,VWS V13.01,2013-02-21 01:36:00,
2013-02-20 19:41:00,42.1,34.4,29.32,ENE,74,5.8,5.8,74,0.00,,---,0.04,VWS V13.01,2013-02-21 01:41:00,
2013-02-20 19:46:00,42.1,34.4,29.32,ENE,74,5.8,5.8,74,0.00,,---,0.04,VWS V13.01,2013-02-21 01:46:00,
2013-02-20 19:51:00,42.1,34.4,29.32,ENE,74,5.8,5.8,74,0.00,,---,0.04,VWS V13.01,2013-02-21 01:51:00,
2013-02-20 19:56:00,42.1,34.4,29.32,ENE,74,5.8,5.8,74,0.00,,---,0.04,VWS V13.01,2013-02-21 01:56:00,
2013-02-20 20:01:00,41.5,34.2,29.32,ENE,74,5.8,5.8,75,0.00,,---,0.04,VWS V13.01,2013-02-21 02:01:00,
2013-02-20 20:06:00,41.5,34.2,29.32,ENE,74,5.8,5.8,75,0.00,,---,0.04,VWS V13.01,2013-02-21 02:06:00,
2013-02-20 20:11:00,41.5,34.2,29.32,ENE,74,5.8,5.8,75,0.00,,---,0.04,VWS V13.01,2013-02-21 02:11:00,
2013-02-20 20:16:00,41.5,34.2,29.32,ENE,74,5.8,5.8,75,0.00,,---,0.04,VWS V13.01,2013-02-21 02:16:00,